createdAt,value
2023-05-01T00:01:35.743Z,4.10
2023-05-01T00:04:38.720Z,3.90
2023-05-01T00:07:41.413Z,3.53
2023-05-01T00:10:44.147Z,4.18
2023-05-01T00:13:47.012Z,3.90
2023-05-01T00:16:49.847Z,4.00
2023-05-01T00:19:53.788Z,3.97
2023-05-01T00:22:56.636Z,4.20
2023-05-01T00:25:59.294Z,3.60
2023-05-01T00:29:02.106Z,3.83
2023-05-01T00:32:05.914Z,3.70
2023-05-01T00:35:09.265Z,4.07
2023-05-01T00:38:12.126Z,3.78
2023-05-01T00:41:14.825Z,3.50
2023-05-01T00:44:17.617Z,4.00
2023-05-01T00:47:20.273Z,3.80
2023-05-01T00:50:23.287Z,4.07
2023-05-01T00:53:26.542Z,3.95
2023-05-01T00:56:31.205Z,3.70
2023-05-01T00:59:33.863Z,3.83
2023-05-01T01:02:37.359Z,3.95
2023-05-01T01:05:47.260Z,4.05
2023-05-01T01:09:08.360Z,4.25
2023-05-01T01:12:23.043Z,5.57
2023-05-01T01:16:04.027Z,5.20
2023-05-01T01:19:22.366Z,4.60
2023-05-01T01:22:26.807Z,4.68
2023-05-01T01:25:38.687Z,4.78
2023-05-01T01:29:07.511Z,4.43
2023-05-01T01:32:22.354Z,4.03
2023-05-01T01:35:27.326Z,4.18
2023-05-01T01:38:42.785Z,4.32
2023-05-01T01:41:50.588Z,3.87
2023-05-01T01:44:55.716Z,4.30
2023-05-01T01:47:59.299Z,4.00
2023-05-01T01:51:07.971Z,4.10
2023-05-01T01:54:12.091Z,4.07
2023-05-01T01:57:16.865Z,4.12
2023-05-01T02:00:20.848Z,4.18
2023-05-01T02:03:24.375Z,4.20
2023-05-01T02:06:28.533Z,4.43
2023-05-01T02:09:31.663Z,4.05
2023-05-01T02:12:34.610Z,3.85
2023-05-01T02:15:38.623Z,4.18
2023-05-01T02:18:41.940Z,4.13
2023-05-01T02:21:45.823Z,3.70
2023-05-01T02:24:49.234Z,4.35
2023-05-01T02:27:57.248Z,3.55
2023-05-01T02:31:00.269Z,4.00
2023-05-01T02:34:03.097Z,3.07
2023-05-01T02:37:07.571Z,3.53
2023-05-01T02:40:12.398Z,3.75
2023-05-01T02:43:17.372Z,3.80
2023-05-01T02:46:21.599Z,3.65
2023-05-01T02:49:24.857Z,3.40
2023-05-01T02:52:27.854Z,4.03
2023-05-01T02:55:30.509Z,4.30
2023-05-01T02:58:33.689Z,3.80
2023-05-01T03:01:36.460Z,3.60
2023-05-01T03:04:39.482Z,3.87
2023-05-01T03:07:42.347Z,4.20
2023-05-01T03:10:44.976Z,4.40
2023-05-01T03:13:48.084Z,4.37
2023-05-01T03:16:50.877Z,4.72
2023-05-01T03:19:53.886Z,4.30
2023-05-01T03:22:57.548Z,4.53
2023-05-01T03:26:00.195Z,4.35
2023-05-01T03:29:03.052Z,3.87
2023-05-01T03:32:06.678Z,4.70
2023-05-01T03:35:10.042Z,4.47
2023-05-01T03:38:12.755Z,4.43
2023-05-01T03:41:15.761Z,4.75
2023-05-01T03:44:18.389Z,4.93
2023-05-01T03:47:21.036Z,5.07
2023-05-01T03:50:23.954Z,5.03
2023-05-01T03:53:26.851Z,5.18
2023-05-01T03:56:35.691Z,4.55
2023-05-01T03:59:39.222Z,5.18
2023-05-01T04:02:42.476Z,5.65
2023-05-01T04:05:45.497Z,5.13
2023-05-01T04:08:48.186Z,5.50
2023-05-01T04:11:50.838Z,5.45
2023-05-01T04:14:53.758Z,5.15
2023-05-01T04:17:57.121Z,5.40
2023-05-01T04:20:59.909Z,5.57
2023-05-01T04:24:02.756Z,6.18
2023-05-01T04:27:06.221Z,6.68
2023-05-01T04:30:09.506Z,7.40
2023-05-01T04:33:12.144Z,7.60
2023-05-01T04:36:14.867Z,8.97
2023-05-01T04:39:17.484Z,8.57
2023-05-01T04:42:20.191Z,8.98
2023-05-01T04:45:22.927Z,8.45
2023-05-01T04:48:25.756Z,8.48
2023-05-01T04:51:29.232Z,8.53
2023-05-01T04:54:31.966Z,8.75
2023-05-01T04:57:34.843Z,8.77
2023-05-01T05:00:37.476Z,8.40
2023-05-01T05:03:40.792Z,9.45
2023-05-01T05:06:43.578Z,9.93
2023-05-01T05:09:46.758Z,10.07
2023-05-01T05:12:49.879Z,9.15
2023-05-01T05:15:53.067Z,10.43
2023-05-01T05:18:57.830Z,10.60
2023-05-01T05:22:03.165Z,10.03
2023-05-01T05:25:07.024Z,9.55
2023-05-01T05:28:09.729Z,10.65
2023-05-01T05:31:12.428Z,10.43
2023-05-01T05:34:15.203Z,10.38
2023-05-01T05:37:17.845Z,10.67
2023-05-01T05:40:20.525Z,9.75
2023-05-01T05:43:24.963Z,10.75
2023-05-01T05:46:28.827Z,11.40
2023-05-01T05:49:31.673Z,11.60
2023-05-01T05:52:34.357Z,11.97
2023-05-01T05:55:37.098Z,11.20
2023-05-01T05:58:39.743Z,11.73
2023-05-01T06:01:43.006Z,11.12
2023-05-01T06:04:46.305Z,12.18
2023-05-01T06:07:49.143Z,9.83
2023-05-01T06:10:51.916Z,9.80
2023-05-01T06:13:54.702Z,9.93
2023-05-01T06:16:57.710Z,8.40
2023-05-01T06:20:00.636Z,8.68
2023-05-01T06:23:03.348Z,7.93
2023-05-01T06:26:06.508Z,8.25
2023-05-01T06:29:09.731Z,8.57
2023-05-01T06:32:12.443Z,7.10
2023-05-01T06:35:15.342Z,7.30
2023-05-01T06:38:18.007Z,6.80
2023-05-01T06:41:22.257Z,7.37
2023-05-01T06:44:24.987Z,6.12
2023-05-01T06:47:27.933Z,6.12
2023-05-01T06:50:30.666Z,5.45
2023-05-01T06:53:33.499Z,5.67
2023-05-01T06:56:36.143Z,4.82
2023-05-01T06:59:39.037Z,4.72
2023-05-01T07:02:41.987Z,5.20
2023-05-01T07:05:44.931Z,5.20
2023-05-01T07:08:47.796Z,4.93
2023-05-01T07:11:50.747Z,5.60
2023-05-01T07:14:53.687Z,4.65
2023-05-01T07:17:56.742Z,3.90
2023-05-01T07:20:59.516Z,4.00
2023-05-01T07:24:02.220Z,3.87
2023-05-01T07:27:05.746Z,4.25
2023-05-01T07:30:09.553Z,4.55
2023-05-01T07:33:12.531Z,4.20
2023-05-01T07:36:15.297Z,4.10
2023-05-01T07:39:18.185Z,4.90
2023-05-01T07:42:21.217Z,4.55
2023-05-01T07:45:24.017Z,4.68
2023-05-01T07:48:28.209Z,4.18
2023-05-01T07:51:31.210Z,4.45
2023-05-01T07:54:34.520Z,4.10
2023-05-01T07:57:37.416Z,4.50
2023-05-01T08:00:40.348Z,3.75
2023-05-01T08:03:43.318Z,3.37
2023-05-01T08:06:46.298Z,3.00
2023-05-01T08:09:49.364Z,3.10
2023-05-01T08:12:52.185Z,3.12
2023-05-01T08:15:55.175Z,3.10
2023-05-01T08:18:58.334Z,3.03
2023-05-01T08:22:01.207Z,2.62
2023-05-01T08:25:04.931Z,2.90
2023-05-01T08:28:07.760Z,2.60
2023-05-01T08:31:10.749Z,3.30
2023-05-01T08:34:13.691Z,3.28
2023-05-01T08:37:16.522Z,3.15
2023-05-01T08:40:19.488Z,2.87
2023-05-01T08:43:23.327Z,2.97
2023-05-01T08:46:41.490Z,3.03
2023-05-01T08:49:46.185Z,2.87
2023-05-01T08:52:52.914Z,3.30
2023-05-01T08:56:00.056Z,2.73
2023-05-01T08:59:05.409Z,2.83
2023-05-01T09:02:09.612Z,2.50
2023-05-01T09:05:12.748Z,3.03
2023-05-01T09:08:15.794Z,2.37
2023-05-01T09:11:20.253Z,2.30
2023-05-01T09:14:23.648Z,2.40
2023-05-01T09:17:26.492Z,2.40
2023-05-01T09:20:29.522Z,2.35
2023-05-01T09:23:32.476Z,2.67
2023-05-01T09:26:38.608Z,2.20
2023-05-01T09:29:48.564Z,2.30
2023-05-01T09:33:13.119Z,2.22
2023-05-01T09:36:18.625Z,2.40
2023-05-01T09:39:24.702Z,2.45
2023-05-01T09:42:27.402Z,2.13
2023-05-01T09:45:30.282Z,2.28
2023-05-01T09:48:35.788Z,2.75
2023-05-01T09:51:39.797Z,2.47
2023-05-01T09:54:43.467Z,2.47
2023-05-01T09:57:46.990Z,2.43
2023-05-01T10:00:50.033Z,2.90
2023-05-01T10:03:56.846Z,2.33
2023-05-01T10:07:17.952Z,2.30
2023-05-01T10:10:21.989Z,2.50
2023-05-01T10:13:24.695Z,2.37
2023-05-01T10:16:31.305Z,2.37
2023-05-01T10:19:34.010Z,2.40
2023-05-01T10:22:36.814Z,2.10
2023-05-01T10:25:42.116Z,2.42
2023-05-01T10:28:48.086Z,2.50
2023-05-01T10:31:50.915Z,2.30
2023-05-01T10:35:01.180Z,2.50
2023-05-01T10:38:09.456Z,2.35
2023-05-01T10:41:12.864Z,2.40
2023-05-01T10:44:24.031Z,2.80
2023-05-01T10:47:31.613Z,2.85
2023-05-01T10:50:34.988Z,2.62
2023-05-01T10:53:38.566Z,2.90
2023-05-01T10:56:46.012Z,6.18
2023-05-01T11:00:03.770Z,2.60
2023-05-01T11:03:22.609Z,3.03
2023-05-01T11:06:26.201Z,2.40
2023-05-01T11:09:42.906Z,2.53
2023-05-01T11:12:48.397Z,2.42
2023-05-01T11:15:51.181Z,2.50
2023-05-01T11:18:54.040Z,2.55
2023-05-01T11:21:57.322Z,3.00
2023-05-01T11:25:01.192Z,3.35
2023-05-01T11:28:06.839Z,4.00
2023-05-01T11:31:12.005Z,2.93
2023-05-01T11:34:14.955Z,2.53
2023-05-01T11:37:17.959Z,2.80
2023-05-01T11:40:23.635Z,2.95
2023-05-01T11:43:27.412Z,2.60
2023-05-01T11:46:32.404Z,2.70
2023-05-01T11:49:39.265Z,2.50
2023-05-01T11:52:48.939Z,3.20
2023-05-01T11:55:52.307Z,5.85
2023-05-01T11:59:01.087Z,3.15
2023-05-01T12:02:20.766Z,2.77
2023-05-01T12:05:26.721Z,2.85
2023-05-01T12:08:31.471Z,2.58
2023-05-01T12:11:35.521Z,2.65
2023-05-01T12:14:38.600Z,3.00
2023-05-01T12:17:41.796Z,2.73
2023-05-01T12:20:47.701Z,2.75
2023-05-01T12:23:50.755Z,3.00
2023-05-01T12:27:00.822Z,2.50
2023-05-01T12:30:03.756Z,3.00
2023-05-01T12:33:14.153Z,5.23
2023-05-01T12:36:18.240Z,2.83
2023-05-01T12:39:23.744Z,3.50
2023-05-01T12:42:26.934Z,2.80
2023-05-01T12:45:29.746Z,2.83
2023-05-01T12:48:34.472Z,2.80
2023-05-01T12:51:37.263Z,2.70
2023-05-01T12:54:43.278Z,3.00
2023-05-01T12:57:55.714Z,2.95
2023-05-01T13:00:58.488Z,3.00
2023-05-01T13:04:01.680Z,3.17
2023-05-01T13:07:24.618Z,2.92
2023-05-01T13:10:31.735Z,3.33
2023-05-01T13:13:35.495Z,2.90
2023-05-01T13:16:47.815Z,3.03
2023-05-01T13:19:55.131Z,2.97
2023-05-01T13:22:57.888Z,3.03
2023-05-01T13:26:01.220Z,3.00
2023-05-01T13:29:05.956Z,2.80
2023-05-01T13:32:11.454Z,2.80
2023-05-01T13:35:22.774Z,2.80
2023-05-01T13:38:25.706Z,3.87
2023-05-01T13:41:28.919Z,3.70
2023-05-01T13:44:32.343Z,3.30
2023-05-01T13:47:38.964Z,4.40
2023-05-01T13:50:43.169Z,6.43
2023-05-01T13:53:45.910Z,3.60
2023-05-01T13:56:48.849Z,7.82
2023-05-01T13:59:51.786Z,3.40
2023-05-01T14:02:56.681Z,3.30
2023-05-01T14:05:59.492Z,3.00
2023-05-01T14:09:04.222Z,3.08
2023-05-01T14:12:06.848Z,10.32
2023-05-01T14:15:11.809Z,6.60
2023-05-01T14:18:17.621Z,2.80
2023-05-01T14:21:21.304Z,3.10
2023-05-01T14:24:24.221Z,3.17
2023-05-01T14:27:27.170Z,3.28
2023-05-01T14:30:38.625Z,2.70
2023-05-01T14:33:45.082Z,2.67
2023-05-01T14:36:47.809Z,2.80
2023-05-01T14:39:50.704Z,2.55
2023-05-01T14:42:54.422Z,3.28
2023-05-01T14:45:57.580Z,2.70
2023-05-01T14:49:01.686Z,2.50
2023-05-01T14:52:04.719Z,3.10
2023-05-01T14:55:08.527Z,6.60
2023-05-01T14:58:11.344Z,7.40
2023-05-01T15:01:15.162Z,4.47
2023-05-01T15:04:18.579Z,5.82
2023-05-01T15:07:22.431Z,3.10
2023-05-01T15:10:25.760Z,2.75
2023-05-01T15:13:29.088Z,2.58
2023-05-01T15:16:32.888Z,2.67
2023-05-01T15:19:35.665Z,3.00
2023-05-01T15:22:40.318Z,2.60
2023-05-01T15:25:44.645Z,2.80
2023-05-01T15:28:47.388Z,2.78
2023-05-01T15:31:58.303Z,2.75
2023-05-01T15:35:07.999Z,2.53
2023-05-01T15:38:10.793Z,2.60
2023-05-01T15:41:13.630Z,2.70
2023-05-01T15:44:17.024Z,2.80
2023-05-01T15:47:19.672Z,2.40
2023-05-01T15:50:23.856Z,2.40
2023-05-01T15:53:26.962Z,2.43
2023-05-01T15:56:30.140Z,2.55
2023-05-01T15:59:32.941Z,2.62
2023-05-01T16:02:35.641Z,3.10
2023-05-01T16:05:38.683Z,3.05
2023-05-01T16:08:41.577Z,6.00
2023-05-01T16:11:44.451Z,3.67
2023-05-01T16:14:48.000Z,15.68
2023-05-01T16:17:52.092Z,12.43
2023-05-01T16:20:56.912Z,15.98
2023-05-01T16:24:01.721Z,8.37
2023-05-01T16:27:04.816Z,3.92
2023-05-01T16:30:09.262Z,2.67
2023-05-01T16:33:21.717Z,5.68
2023-05-01T16:36:24.756Z,5.40
2023-05-01T16:39:27.622Z,4.80
2023-05-01T16:42:30.444Z,3.67
2023-05-01T16:45:33.136Z,4.47
2023-05-01T16:48:36.040Z,3.47
2023-05-01T16:51:41.386Z,3.60
2023-05-01T16:54:44.517Z,6.23
2023-05-01T16:57:47.594Z,5.75
2023-05-01T17:00:50.717Z,5.40
2023-05-01T17:03:54.129Z,4.05
2023-05-01T17:06:57.234Z,4.25
2023-05-01T17:10:00.271Z,3.70
2023-05-01T17:13:03.194Z,9.50
2023-05-01T17:16:06.669Z,13.52
2023-05-01T17:19:10.100Z,4.45
2023-05-01T17:22:13.016Z,8.05
2023-05-01T17:25:15.986Z,4.80
2023-05-01T17:28:19.218Z,11.10
2023-05-01T17:31:22.789Z,4.50
2023-05-01T17:34:25.782Z,3.50
2023-05-01T17:37:28.687Z,3.97
2023-05-01T17:40:32.598Z,4.20
2023-05-01T17:43:35.442Z,4.97
2023-05-01T17:46:39.164Z,3.85
2023-05-01T17:49:42.380Z,3.95
2023-05-01T17:52:48.436Z,3.95
2023-05-01T17:55:51.267Z,5.30
2023-05-01T17:58:55.182Z,4.97
2023-05-01T18:01:58.740Z,4.40
2023-05-01T18:05:02.370Z,5.37
2023-05-01T18:08:06.937Z,3.78
2023-05-01T18:11:11.231Z,5.20
2023-05-01T18:14:14.830Z,3.50
2023-05-01T18:17:23.180Z,2.92
2023-05-01T18:20:27.213Z,4.60
2023-05-01T18:23:30.090Z,3.92
2023-05-01T18:26:33.265Z,3.30
2023-05-01T18:29:36.907Z,4.22
2023-05-01T18:32:48.191Z,3.70
2023-05-01T18:35:52.261Z,3.97
2023-05-01T18:38:56.412Z,3.78
2023-05-01T18:42:04.171Z,3.80
2023-05-01T18:45:12.576Z,4.28
2023-05-01T18:48:17.535Z,4.40
2023-05-01T18:51:22.872Z,4.65
2023-05-01T18:54:26.346Z,4.35
2023-05-01T18:57:30.453Z,4.47
2023-05-01T19:00:33.613Z,4.32
2023-05-01T19:03:37.712Z,5.12
2023-05-01T19:06:41.939Z,3.75
2023-05-01T19:09:46.142Z,4.22
2023-05-01T19:12:49.668Z,5.10
2023-05-01T19:15:53.663Z,4.03
2023-05-01T19:18:58.935Z,3.90
2023-05-01T19:22:03.735Z,3.92
2023-05-01T19:25:07.232Z,4.72
2023-05-01T19:28:10.280Z,5.20
2023-05-01T19:31:14.818Z,5.72
2023-05-01T19:34:18.111Z,5.07
2023-05-01T19:37:21.601Z,6.47
2023-05-01T19:40:25.394Z,6.57
2023-05-01T19:43:28.593Z,7.00
2023-05-01T19:46:31.483Z,7.32
2023-05-01T19:49:34.859Z,6.62
2023-05-01T19:52:37.830Z,8.00
2023-05-01T19:55:41.149Z,10.13
2023-05-01T19:58:44.415Z,10.67
2023-05-01T20:01:47.511Z,10.73
2023-05-01T20:04:50.531Z,10.15
2023-05-01T20:08:00.273Z,11.30
2023-05-01T20:11:03.585Z,8.95
2023-05-01T20:14:06.535Z,7.60
2023-05-01T20:17:09.674Z,7.62
2023-05-01T20:20:12.997Z,6.40
2023-05-01T20:23:17.960Z,6.15
2023-05-01T20:26:21.113Z,5.45
2023-05-01T20:29:23.904Z,6.80
2023-05-01T20:32:27.001Z,5.68
2023-05-01T20:35:30.788Z,5.70
2023-05-01T20:38:33.608Z,6.37
2023-05-01T20:41:36.858Z,9.23
2023-05-01T20:44:40.359Z,9.50
2023-05-01T20:47:43.057Z,11.73
2023-05-01T20:50:47.797Z,10.70
2023-05-01T20:53:50.773Z,9.40
2023-05-01T20:56:53.436Z,9.18
2023-05-01T20:59:56.622Z,11.20
2023-05-01T21:03:00.040Z,10.35
2023-05-01T21:06:02.972Z,9.98
2023-05-01T21:09:06.469Z,8.07
2023-05-01T21:12:11.104Z,8.23
2023-05-01T21:15:13.926Z,7.63
2023-05-01T21:18:18.216Z,8.75
2023-05-01T21:21:25.143Z,7.60
2023-05-01T21:24:27.857Z,8.43
2023-05-01T21:27:30.881Z,9.30
2023-05-01T21:30:36.596Z,9.67
2023-05-01T21:33:46.111Z,8.85
2023-05-01T21:36:49.451Z,10.55
2023-05-01T21:39:52.832Z,10.00
2023-05-01T21:42:56.451Z,10.35
2023-05-01T21:46:02.900Z,9.80
2023-05-01T21:49:05.776Z,10.18
2023-05-01T21:52:11.842Z,9.98
2023-05-01T21:55:26.071Z,10.30
2023-05-01T21:58:29.013Z,10.45
2023-05-01T22:01:32.055Z,10.70
2023-05-01T22:04:35.373Z,10.55
2023-05-01T22:07:40.259Z,10.02
2023-05-01T22:10:45.684Z,9.18
2023-05-01T22:13:48.440Z,9.25
2023-05-01T22:16:54.053Z,10.07
2023-05-01T22:19:56.983Z,9.73
2023-05-01T22:22:59.932Z,9.68
2023-05-01T22:26:02.594Z,8.10
2023-05-01T22:29:05.393Z,9.10
2023-05-01T22:32:08.259Z,9.43
2023-05-01T22:35:14.022Z,8.55
2023-05-01T22:38:16.882Z,8.50
2023-05-01T22:41:19.748Z,7.40
2023-05-01T22:44:22.655Z,8.02
2023-05-01T22:47:25.470Z,7.20
2023-05-01T22:50:28.436Z,7.25
2023-05-01T22:53:34.298Z,7.80
2023-05-01T22:56:40.278Z,6.62
2023-05-01T22:59:43.710Z,7.20
2023-05-01T23:02:46.850Z,7.23
2023-05-01T23:05:52.872Z,7.50
2023-05-01T23:08:55.503Z,6.72
2023-05-01T23:11:58.423Z,7.25
2023-05-01T23:15:04.607Z,7.20
2023-05-01T23:18:09.576Z,7.00
2023-05-01T23:21:17.508Z,6.57
2023-05-01T23:24:21.425Z,6.53
2023-05-01T23:27:24.121Z,6.68
2023-05-01T23:30:26.932Z,6.50
2023-05-01T23:33:35.177Z,6.63
2023-05-01T23:36:38.213Z,6.32
2023-05-01T23:39:40.846Z,6.28
2023-05-01T23:42:43.704Z,6.32
2023-05-01T23:45:46.801Z,5.68
2023-05-01T23:48:49.530Z,5.50
2023-05-01T23:51:52.759Z,5.28
2023-05-01T23:54:55.762Z,6.43
2023-05-01T23:57:58.604Z,6.00
